sensor_id;sensor_type;location;lat;lon;timestamp;P1;durP1;ratioP1;P2;durP2;ratioP2
71629;SDS011;59479;51.902;8.212;2023-01-25T00:01:50;22.67;;;11.18;;
71629;SDS011;59479;51.902;8.212;2023-01-25T00:04:16;19.52;;;10.98;;
71629;SDS011;59479;51.902;8.212;2023-01-25T00:06:43;18.88;;;10.05;;
71629;SDS011;59479;51.902;8.212;2023-01-25T00:09:09;18.63;;;9.87;;
71629;SDS011;59479;51.902;8.212;2023-01-25T00:11:34;20.55;;;10.77;;
71629;SDS011;59479;51.902;8.212;2023-01-25T00:14:01;19.40;;;9.80;;
71629;SDS011;59479;51.902;8.212;2023-01-25T00:16:27;18.15;;;9.82;;
71629;SDS011;59479;51.902;8.212;2023-01-25T00:18:52;21.03;;;10.97;;
71629;SDS011;59479;51.902;8.212;2023-01-25T00:21:19;23.07;;;10.87;;
71629;SDS011;59479;51.902;8.212;2023-01-25T00:23:46;20.52;;;10.45;;
71629;SDS011;59479;51.902;8.212;2023-01-25T00:26:11;22.60;;;11.27;;
71629;SDS011;59479;51.902;8.212;2023-01-25T00:28:37;23.58;;;12.05;;
71629;SDS011;59479;51.902;8.212;2023-01-25T00:31:03;22.50;;;11.70;;
71629;SDS011;59479;51.902;8.212;2023-01-25T00:39:02;20.83;;;11.15;;
71629;SDS011;59479;51.902;8.212;2023-01-25T00:41:27;18.87;;;9.70;;
71629;SDS011;59479;51.902;8.212;2023-01-25T00:43:53;19.60;;;9.90;;
71629;SDS011;59479;51.902;8.212;2023-01-25T00:46:18;18.05;;;9.48;;
71629;SDS011;59479;51.902;8.212;2023-01-25T00:48:44;22.07;;;11.03;;
71629;SDS011;59479;51.902;8.212;2023-01-25T00:51:09;18.93;;;9.73;;
71629;SDS011;59479;51.902;8.212;2023-01-25T00:53:35;21.35;;;10.32;;
71629;SDS011;59479;51.902;8.212;2023-01-25T00:56:01;19.53;;;9.43;;
71629;SDS011;59479;51.902;8.212;2023-01-25T00:58:26;20.27;;;10.23;;
71629;SDS011;59479;51.902;8.212;2023-01-25T01:00:54;22.23;;;9.98;;
71629;SDS011;59479;51.902;8.212;2023-01-25T01:03:20;18.13;;;9.77;;
71629;SDS011;59479;51.902;8.212;2023-01-25T01:05:46;20.13;;;10.10;;
71629;SDS011;59479;51.902;8.212;2023-01-25T01:08:12;21.53;;;10.53;;
71629;SDS011;59479;51.902;8.212;2023-01-25T01:10:38;18.77;;;10.02;;
71629;SDS011;59479;51.902;8.212;2023-01-25T01:13:04;21.00;;;10.18;;
71629;SDS011;59479;51.902;8.212;2023-01-25T01:15:30;18.90;;;9.27;;
71629;SDS011;59479;51.902;8.212;2023-01-25T01:17:55;21.60;;;10.53;;
71629;SDS011;59479;51.902;8.212;2023-01-25T01:20:21;19.07;;;9.70;;
71629;SDS011;59479;51.902;8.212;2023-01-25T01:22:46;19.88;;;9.23;;
71629;SDS011;59479;51.902;8.212;2023-01-25T01:25:12;22.93;;;10.63;;
71629;SDS011;59479;51.902;8.212;2023-01-25T01:27:38;20.27;;;10.40;;
71629;SDS011;59479;51.902;8.212;2023-01-25T01:30:04;17.25;;;9.75;;
71629;SDS011;59479;51.902;8.212;2023-01-25T01:32:29;18.08;;;9.63;;
71629;SDS011;59479;51.902;8.212;2023-01-25T01:34:55;20.07;;;10.60;;
71629;SDS011;59479;51.902;8.212;2023-01-25T01:37:20;18.83;;;10.10;;
71629;SDS011;59479;51.902;8.212;2023-01-25T01:39:45;21.47;;;10.97;;
71629;SDS011;59479;51.902;8.212;2023-01-25T01:42:11;18.57;;;9.67;;
71629;SDS011;59479;51.902;8.212;2023-01-25T01:44:42;23.47;;;11.13;;
71629;SDS011;59479;51.902;8.212;2023-01-25T01:47:13;19.85;;;9.82;;
71629;SDS011;59479;51.902;8.212;2023-01-25T01:49:43;21.33;;;10.55;;
71629;SDS011;59479;51.902;8.212;2023-01-25T01:52:14;20.08;;;10.10;;
71629;SDS011;59479;51.902;8.212;2023-01-25T01:54:42;21.90;;;10.43;;
71629;SDS011;59479;51.902;8.212;2023-01-25T01:57:24;20.20;;;9.63;;
71629;SDS011;59479;51.902;8.212;2023-01-25T02:02:24;19.25;;;9.55;;
71629;SDS011;59479;51.902;8.212;2023-01-25T02:04:50;19.67;;;9.88;;
71629;SDS011;59479;51.902;8.212;2023-01-25T02:07:28;17.37;;;10.03;;
71629;SDS011;59479;51.902;8.212;2023-01-25T02:09:56;16.92;;;8.98;;
71629;SDS011;59479;51.902;8.212;2023-01-25T02:12:23;16.02;;;8.52;;
71629;SDS011;59479;51.902;8.212;2023-01-25T02:14:50;15.63;;;8.38;;
71629;SDS011;59479;51.902;8.212;2023-01-25T02:17:23;16.33;;;8.60;;
71629;SDS011;59479;51.902;8.212;2023-01-25T02:19:53;18.35;;;9.38;;
71629;SDS011;59479;51.902;8.212;2023-01-25T02:22:26;17.10;;;9.05;;
71629;SDS011;59479;51.902;8.212;2023-01-25T02:25:03;19.65;;;9.82;;
71629;SDS011;59479;51.902;8.212;2023-01-25T02:27:33;19.38;;;10.00;;
71629;SDS011;59479;51.902;8.212;2023-01-25T02:30:02;19.03;;;10.33;;
71629;SDS011;59479;51.902;8.212;2023-01-25T02:32:28;22.85;;;10.93;;
71629;SDS011;59479;51.902;8.212;2023-01-25T02:34:53;22.33;;;9.90;;
71629;SDS011;59479;51.902;8.212;2023-01-25T02:37:18;20.93;;;10.00;;
71629;SDS011;59479;51.902;8.212;2023-01-25T02:39:44;19.50;;;10.13;;
71629;SDS011;59479;51.902;8.212;2023-01-25T02:42:09;19.00;;;9.93;;
71629;SDS011;59479;51.902;8.212;2023-01-25T02:44:34;20.23;;;9.47;;
71629;SDS011;59479;51.902;8.212;2023-01-25T02:47:01;17.23;;;9.35;;
71629;SDS011;59479;51.902;8.212;2023-01-25T02:49:26;20.30;;;10.60;;
71629;SDS011;59479;51.902;8.212;2023-01-25T02:51:53;20.93;;;10.63;;
71629;SDS011;59479;51.902;8.212;2023-01-25T02:54:22;19.08;;;9.27;;
71629;SDS011;59479;51.902;8.212;2023-01-25T02:56:49;17.70;;;10.10;;
71629;SDS011;59479;51.902;8.212;2023-01-25T02:59:15;19.90;;;9.23;;
71629;SDS011;59479;51.902;8.212;2023-01-25T03:01:41;21.63;;;10.83;;
71629;SDS011;59479;51.902;8.212;2023-01-25T03:04:07;19.70;;;9.80;;
71629;SDS011;59479;51.902;8.212;2023-01-25T03:06:34;21.27;;;10.13;;
71629;SDS011;59479;51.902;8.212;2023-01-25T03:09:00;20.63;;;10.60;;
71629;SDS011;59479;51.902;8.212;2023-01-25T03:11:26;20.10;;;10.35;;
71629;SDS011;59479;51.902;8.212;2023-01-25T03:13:52;21.53;;;9.63;;
71629;SDS011;59479;51.902;8.212;2023-01-25T03:16:17;20.43;;;9.93;;
71629;SDS011;59479;51.902;8.212;2023-01-25T03:18:43;20.92;;;10.80;;
71629;SDS011;59479;51.902;8.212;2023-01-25T03:21:10;20.17;;;10.03;;
71629;SDS011;59479;51.902;8.212;2023-01-25T03:23:37;22.67;;;10.55;;
71629;SDS011;59479;51.902;8.212;2023-01-25T03:26:09;23.05;;;11.00;;
71629;SDS011;59479;51.902;8.212;2023-01-25T03:28:40;23.30;;;11.13;;
71629;SDS011;59479;51.902;8.212;2023-01-25T03:31:06;22.08;;;10.82;;
71629;SDS011;59479;51.902;8.212;2023-01-25T03:33:33;23.88;;;12.05;;
71629;SDS011;59479;51.902;8.212;2023-01-25T03:35:59;19.43;;;9.83;;
71629;SDS011;59479;51.902;8.212;2023-01-25T03:38:25;20.85;;;10.45;;
71629;SDS011;59479;51.902;8.212;2023-01-25T03:40:51;21.23;;;10.68;;
71629;SDS011;59479;51.902;8.212;2023-01-25T03:43:16;19.63;;;9.57;;
71629;SDS011;59479;51.902;8.212;2023-01-25T03:45:42;20.02;;;10.07;;
71629;SDS011;59479;51.902;8.212;2023-01-25T03:48:07;20.00;;;10.03;;
71629;SDS011;59479;51.902;8.212;2023-01-25T03:50:32;22.97;;;11.93;;
71629;SDS011;59479;51.902;8.212;2023-01-25T03:53:01;23.10;;;11.87;;
71629;SDS011;59479;51.902;8.212;2023-01-25T03:55:51;22.90;;;10.85;;
71629;SDS011;59479;51.902;8.212;2023-01-25T03:58:16;25.20;;;10.83;;
71629;SDS011;59479;51.902;8.212;2023-01-25T04:00:42;21.70;;;11.13;;
71629;SDS011;59479;51.902;8.212;2023-01-25T04:03:07;24.77;;;11.47;;
71629;SDS011;59479;51.902;8.212;2023-01-25T04:05:32;22.20;;;11.27;;
71629;SDS011;59479;51.902;8.212;2023-01-25T04:07:58;23.87;;;10.60;;
71629;SDS011;59479;51.902;8.212;2023-01-25T04:10:23;23.20;;;11.00;;
71629;SDS011;59479;51.902;8.212;2023-01-25T04:12:48;22.30;;;10.50;;
71629;SDS011;59479;51.902;8.212;2023-01-25T04:15:13;22.87;;;10.87;;
71629;SDS011;59479;51.902;8.212;2023-01-25T04:17:39;20.40;;;10.00;;
71629;SDS011;59479;51.902;8.212;2023-01-25T04:20:04;22.93;;;11.00;;
71629;SDS011;59479;51.902;8.212;2023-01-25T04:22:30;24.08;;;11.35;;
71629;SDS011;59479;51.902;8.212;2023-01-25T04:24:55;21.00;;;10.33;;
71629;SDS011;59479;51.902;8.212;2023-01-25T04:27:21;22.87;;;10.37;;
71629;SDS011;59479;51.902;8.212;2023-01-25T04:29:46;21.10;;;10.07;;
71629;SDS011;59479;51.902;8.212;2023-01-25T04:32:11;23.47;;;10.93;;
71629;SDS011;59479;51.902;8.212;2023-01-25T04:34:37;21.30;;;10.77;;
71629;SDS011;59479;51.902;8.212;2023-01-25T04:37:02;21.02;;;10.88;;
71629;SDS011;59479;51.902;8.212;2023-01-25T04:39:27;22.07;;;10.20;;
71629;SDS011;59479;51.902;8.212;2023-01-25T04:41:53;24.33;;;11.53;;
71629;SDS011;59479;51.902;8.212;2023-01-25T04:44:18;22.13;;;10.10;;
71629;SDS011;59479;51.902;8.212;2023-01-25T04:46:43;20.93;;;9.17;;
71629;SDS011;59479;51.902;8.212;2023-01-25T04:49:08;21.03;;;10.03;;
71629;SDS011;59479;51.902;8.212;2023-01-25T04:51:34;22.93;;;10.57;;
71629;SDS011;59479;51.902;8.212;2023-01-25T04:53:59;21.13;;;10.60;;
71629;SDS011;59479;51.902;8.212;2023-01-25T04:56:24;18.80;;;9.70;;
71629;SDS011;59479;51.902;8.212;2023-01-25T04:58:50;22.88;;;10.05;;
71629;SDS011;59479;51.902;8.212;2023-01-25T05:01:17;21.47;;;9.70;;
71629;SDS011;59479;51.902;8.212;2023-01-25T05:03:43;21.30;;;10.47;;
71629;SDS011;59479;51.902;8.212;2023-01-25T05:06:21;21.90;;;10.32;;
71629;SDS011;59479;51.902;8.212;2023-01-25T05:16:22;22.90;;;10.32;;
71629;SDS011;59479;51.902;8.212;2023-01-25T05:19:43;20.65;;;9.60;;
71629;SDS011;59479;51.902;8.212;2023-01-25T05:22:24;23.73;;;11.20;;
71629;SDS011;59479;51.902;8.212;2023-01-25T05:25:26;23.43;;;10.93;;
71629;SDS011;59479;51.902;8.212;2023-01-25T05:46:51;26.50;;;11.95;;
71629;SDS011;59479;51.902;8.212;2023-01-25T05:49:51;23.33;;;10.02;;
71629;SDS011;59479;51.902;8.212;2023-01-25T05:52:54;25.08;;;11.48;;
71629;SDS011;59479;51.902;8.212;2023-01-25T05:55:47;25.80;;;11.40;;
71629;SDS011;59479;51.902;8.212;2023-01-25T05:58:39;25.90;;;11.70;;
71629;SDS011;59479;51.902;8.212;2023-01-25T06:01:29;27.95;;;11.82;;
71629;SDS011;59479;51.902;8.212;2023-01-25T06:03:55;27.33;;;12.63;;
71629;SDS011;59479;51.902;8.212;2023-01-25T06:06:55;26.63;;;11.13;;
71629;SDS011;59479;51.902;8.212;2023-01-25T06:09:46;26.30;;;11.63;;
71629;SDS011;59479;51.902;8.212;2023-01-25T06:12:20;29.40;;;11.52;;
71629;SDS011;59479;51.902;8.212;2023-01-25T06:16:00;28.25;;;11.60;;
71629;SDS011;59479;51.902;8.212;2023-01-25T06:18:39;26.25;;;11.35;;
71629;SDS011;59479;51.902;8.212;2023-01-25T06:21:10;26.02;;;11.55;;
71629;SDS011;59479;51.902;8.212;2023-01-25T06:26:59;26.80;;;11.02;;
71629;SDS011;59479;51.902;8.212;2023-01-25T06:29:42;22.67;;;11.18;;
71629;SDS011;59479;51.902;8.212;2023-01-25T06:32:57;24.60;;;10.52;;
71629;SDS011;59479;51.902;8.212;2023-01-25T06:35:49;24.77;;;10.85;;
71629;SDS011;59479;51.902;8.212;2023-01-25T06:42:20;33.95;;;15.20;;
71629;SDS011;59479;51.902;8.212;2023-01-25T06:45:17;27.92;;;12.30;;
71629;SDS011;59479;51.902;8.212;2023-01-25T06:47:53;28.13;;;11.43;;
71629;SDS011;59479;51.902;8.212;2023-01-25T06:50:21;25.85;;;11.48;;
71629;SDS011;59479;51.902;8.212;2023-01-25T06:52:55;27.27;;;11.27;;
71629;SDS011;59479;51.902;8.212;2023-01-25T06:56:01;26.10;;;12.18;;
71629;SDS011;59479;51.902;8.212;2023-01-25T06:59:02;23.85;;;10.32;;
71629;SDS011;59479;51.902;8.212;2023-01-25T07:01:57;26.38;;;11.32;;
71629;SDS011;59479;51.902;8.212;2023-01-25T07:04:38;30.05;;;12.52;;
71629;SDS011;59479;51.902;8.212;2023-01-25T07:07:33;25.87;;;10.53;;
71629;SDS011;59479;51.902;8.212;2023-01-25T07:09:58;27.48;;;10.70;;
71629;SDS011;59479;51.902;8.212;2023-01-25T07:12:27;26.80;;;10.65;;
71629;SDS011;59479;51.902;8.212;2023-01-25T07:14:54;26.13;;;10.70;;
71629;SDS011;59479;51.902;8.212;2023-01-25T07:17:19;26.27;;;11.25;;
71629;SDS011;59479;51.902;8.212;2023-01-25T07:19:45;22.87;;;9.77;;
71629;SDS011;59479;51.902;8.212;2023-01-25T07:22:11;22.35;;;9.40;;
71629;SDS011;59479;51.902;8.212;2023-01-25T07:24:36;25.37;;;10.03;;
71629;SDS011;59479;51.902;8.212;2023-01-25T07:27:08;25.48;;;10.50;;
71629;SDS011;59479;51.902;8.212;2023-01-25T07:29:33;22.98;;;10.45;;
71629;SDS011;59479;51.902;8.212;2023-01-25T07:31:58;26.77;;;9.60;;
71629;SDS011;59479;51.902;8.212;2023-01-25T07:34:26;25.90;;;9.97;;
71629;SDS011;59479;51.902;8.212;2023-01-25T07:36:55;23.83;;;9.88;;
71629;SDS011;59479;51.902;8.212;2023-01-25T07:39:21;24.63;;;9.77;;
71629;SDS011;59479;51.902;8.212;2023-01-25T07:41:46;24.13;;;9.80;;
71629;SDS011;59479;51.902;8.212;2023-01-25T07:44:20;25.20;;;10.45;;
71629;SDS011;59479;51.902;8.212;2023-01-25T07:46:45;24.65;;;9.85;;
71629;SDS011;59479;51.902;8.212;2023-01-25T07:49:14;24.97;;;10.53;;
71629;SDS011;59479;51.902;8.212;2023-01-25T07:51:50;25.83;;;11.50;;
71629;SDS011;59479;51.902;8.212;2023-01-25T07:54:24;27.60;;;10.48;;
71629;SDS011;59479;51.902;8.212;2023-01-25T07:57:05;25.88;;;10.05;;
71629;SDS011;59479;51.902;8.212;2023-01-25T07:59:36;25.23;;;10.25;;
71629;SDS011;59479;51.902;8.212;2023-01-25T08:02:14;26.67;;;10.30;;
71629;SDS011;59479;51.902;8.212;2023-01-25T08:04:51;24.23;;;9.82;;
71629;SDS011;59479;51.902;8.212;2023-01-25T08:07:50;23.43;;;9.73;;
71629;SDS011;59479;51.902;8.212;2023-01-25T08:10:31;24.27;;;10.07;;
71629;SDS011;59479;51.902;8.212;2023-01-25T08:13:00;29.92;;;10.00;;
71629;SDS011;59479;51.902;8.212;2023-01-25T08:15:29;28.00;;;9.87;;
71629;SDS011;59479;51.902;8.212;2023-01-25T08:18:09;24.88;;;9.75;;
71629;SDS011;59479;51.902;8.212;2023-01-25T08:20:34;23.47;;;9.97;;
71629;SDS011;59479;51.902;8.212;2023-01-25T08:23:01;24.48;;;10.13;;
71629;SDS011;59479;51.902;8.212;2023-01-25T08:25:27;22.87;;;8.90;;
71629;SDS011;59479;51.902;8.212;2023-01-25T08:27:54;21.50;;;8.80;;
71629;SDS011;59479;51.902;8.212;2023-01-25T08:30:35;23.38;;;9.82;;
71629;SDS011;59479;51.902;8.212;2023-01-25T08:33:01;24.43;;;9.30;;
71629;SDS011;59479;51.902;8.212;2023-01-25T08:35:26;22.87;;;8.97;;
71629;SDS011;59479;51.902;8.212;2023-01-25T08:37:51;21.90;;;8.70;;
71629;SDS011;59479;51.902;8.212;2023-01-25T08:40:17;25.38;;;10.13;;
71629;SDS011;59479;51.902;8.212;2023-01-25T08:42:42;25.13;;;9.47;;
71629;SDS011;59479;51.902;8.212;2023-01-25T08:45:08;23.97;;;8.83;;
71629;SDS011;59479;51.902;8.212;2023-01-25T08:47:34;28.17;;;10.35;;
71629;SDS011;59479;51.902;8.212;2023-01-25T08:49:59;21.60;;;8.77;;
71629;SDS011;59479;51.902;8.212;2023-01-25T08:52:25;22.10;;;8.93;;
71629;SDS011;59479;51.902;8.212;2023-01-25T08:54:50;22.73;;;8.63;;
71629;SDS011;59479;51.902;8.212;2023-01-25T08:57:15;25.77;;;8.60;;
71629;SDS011;59479;51.902;8.212;2023-01-25T08:59:41;22.33;;;8.70;;
71629;SDS011;59479;51.902;8.212;2023-01-25T09:02:07;21.70;;;9.38;;
71629;SDS011;59479;51.902;8.212;2023-01-25T09:04:35;20.93;;;8.70;;
71629;SDS011;59479;51.902;8.212;2023-01-25T09:07:00;22.53;;;8.80;;
71629;SDS011;59479;51.902;8.212;2023-01-25T09:09:25;20.23;;;8.32;;
71629;SDS011;59479;51.902;8.212;2023-01-25T09:11:51;29.03;;;12.50;;
71629;SDS011;59479;51.902;8.212;2023-01-25T09:14:16;22.27;;;10.63;;
71629;SDS011;59479;51.902;8.212;2023-01-25T09:23:26;23.73;;;9.77;;
71629;SDS011;59479;51.902;8.212;2023-01-25T09:26:10;21.83;;;10.10;;
71629;SDS011;59479;51.902;8.212;2023-01-25T09:29:21;21.50;;;8.30;;
71629;SDS011;59479;51.902;8.212;2023-01-25T09:40:16;23.23;;;8.77;;
71629;SDS011;59479;51.902;8.212;2023-01-25T10:11:46;18.02;;;7.05;;
71629;SDS011;59479;51.902;8.212;2023-01-25T10:14:17;14.55;;;6.75;;
71629;SDS011;59479;51.902;8.212;2023-01-25T10:33:46;23.98;;;9.00;;
71629;SDS011;59479;51.902;8.212;2023-01-25T10:49:55;18.13;;;8.85;;
71629;SDS011;59479;51.902;8.212;2023-01-25T10:52:56;16.15;;;8.13;;
71629;SDS011;59479;51.902;8.212;2023-01-25T11:13:39;22.03;;;11.03;;
71629;SDS011;59479;51.902;8.212;2023-01-25T11:16:48;25.13;;;10.00;;
71629;SDS011;59479;51.902;8.212;2023-01-25T11:23:40;25.20;;;9.60;;
71629;SDS011;59479;51.902;8.212;2023-01-25T11:33:41;22.77;;;9.50;;
71629;SDS011;59479;51.902;8.212;2023-01-25T12:09:32;30.08;;;11.88;;
71629;SDS011;59479;51.902;8.212;2023-01-25T12:12:11;33.28;;;13.07;;
71629;SDS011;59479;51.902;8.212;2023-01-25T12:15:03;32.67;;;13.23;;
71629;SDS011;59479;51.902;8.212;2023-01-25T12:23:11;31.05;;;11.98;;
71629;SDS011;59479;51.902;8.212;2023-01-25T12:25:53;32.55;;;11.20;;
71629;SDS011;59479;51.902;8.212;2023-01-25T12:28:30;32.42;;;11.43;;
71629;SDS011;59479;51.902;8.212;2023-01-25T12:33:59;25.27;;;10.17;;
71629;SDS011;59479;51.902;8.212;2023-01-25T12:36:33;28.10;;;10.35;;
71629;SDS011;59479;51.902;8.212;2023-01-25T12:44:44;23.05;;;10.18;;
71629;SDS011;59479;51.902;8.212;2023-01-25T13:43:54;37.63;;;14.15;;
71629;SDS011;59479;51.902;8.212;2023-01-25T13:50:54;36.90;;;13.07;;
71629;SDS011;59479;51.902;8.212;2023-01-25T13:54:02;37.17;;;13.60;;
71629;SDS011;59479;51.902;8.212;2023-01-25T14:04:49;40.15;;;13.63;;
71629;SDS011;59479;51.902;8.212;2023-01-25T14:08:27;39.80;;;14.17;;
71629;SDS011;59479;51.902;8.212;2023-01-25T14:18:53;47.15;;;17.33;;
71629;SDS011;59479;51.902;8.212;2023-01-25T14:28:48;45.88;;;16.63;;
71629;SDS011;59479;51.902;8.212;2023-01-25T14:31:39;43.55;;;16.08;;
71629;SDS011;59479;51.902;8.212;2023-01-25T14:34:14;54.25;;;17.42;;
71629;SDS011;59479;51.902;8.212;2023-01-25T14:37:09;44.40;;;16.92;;
71629;SDS011;59479;51.902;8.212;2023-01-25T14:42:44;43.45;;;17.20;;
71629;SDS011;59479;51.902;8.212;2023-01-25T14:45:18;48.25;;;18.55;;
71629;SDS011;59479;51.902;8.212;2023-01-25T14:51:31;53.10;;;19.27;;
71629;SDS011;59479;51.902;8.212;2023-01-25T14:57:24;56.40;;;19.65;;
71629;SDS011;59479;51.902;8.212;2023-01-25T14:59:57;54.63;;;19.35;;
71629;SDS011;59479;51.902;8.212;2023-01-25T15:13:38;62.90;;;21.65;;
71629;SDS011;59479;51.902;8.212;2023-01-25T15:20:45;56.35;;;21.05;;
71629;SDS011;59479;51.902;8.212;2023-01-25T15:30:20;59.28;;;22.33;;
71629;SDS011;59479;51.902;8.212;2023-01-25T15:40:48;61.90;;;21.35;;
71629;SDS011;59479;51.902;8.212;2023-01-25T15:43:58;68.50;;;24.13;;
71629;SDS011;59479;51.902;8.212;2023-01-25T15:47:04;59.03;;;20.88;;
71629;SDS011;59479;51.902;8.212;2023-01-25T15:50:04;66.38;;;23.17;;
71629;SDS011;59479;51.902;8.212;2023-01-25T15:53:23;72.63;;;22.65;;
71629;SDS011;59479;51.902;8.212;2023-01-25T16:06:09;59.78;;;21.77;;
71629;SDS011;59479;51.902;8.212;2023-01-25T16:13:22;62.55;;;22.02;;
71629;SDS011;59479;51.902;8.212;2023-01-25T16:17:00;62.47;;;22.07;;
71629;SDS011;59479;51.902;8.212;2023-01-25T16:32:03;59.28;;;19.40;;
71629;SDS011;59479;51.902;8.212;2023-01-25T16:46:31;59.15;;;19.13;;
71629;SDS011;59479;51.902;8.212;2023-01-25T16:52:44;68.10;;;21.17;;
71629;SDS011;59479;51.902;8.212;2023-01-25T16:55:31;67.43;;;20.90;;
71629;SDS011;59479;51.902;8.212;2023-01-25T17:05:51;75.15;;;22.38;;
71629;SDS011;59479;51.902;8.212;2023-01-25T17:09:00;70.40;;;21.50;;
71629;SDS011;59479;51.902;8.212;2023-01-25T17:19:23;63.03;;;21.30;;
71629;SDS011;59479;51.902;8.212;2023-01-25T17:30:15;68.88;;;21.40;;
71629;SDS011;59479;51.902;8.212;2023-01-25T17:33:35;74.55;;;23.90;;
71629;SDS011;59479;51.902;8.212;2023-01-25T17:43:51;64.03;;;21.73;;
71629;SDS011;59479;51.902;8.212;2023-01-25T17:47:17;66.78;;;21.55;;
71629;SDS011;59479;51.902;8.212;2023-01-25T17:50:25;72.90;;;21.83;;
71629;SDS011;59479;51.902;8.212;2023-01-25T18:11:27;73.15;;;24.50;;
71629;SDS011;59479;51.902;8.212;2023-01-25T18:19:25;67.73;;;25.10;;
71629;SDS011;59479;51.902;8.212;2023-01-25T18:26:32;54.97;;;20.33;;
71629;SDS011;59479;51.902;8.212;2023-01-25T18:32:56;59.85;;;22.20;;
71629;SDS011;59479;51.902;8.212;2023-01-25T18:36:21;55.87;;;20.97;;
71629;SDS011;59479;51.902;8.212;2023-01-25T18:43:30;52.47;;;19.67;;
71629;SDS011;59479;51.902;8.212;2023-01-25T18:50:21;54.17;;;21.77;;
71629;SDS011;59479;51.902;8.212;2023-01-25T18:57:37;53.55;;;20.80;;
71629;SDS011;59479;51.902;8.212;2023-01-25T19:01:11;54.83;;;21.80;;
71629;SDS011;59479;51.902;8.212;2023-01-25T19:04:48;52.65;;;23.73;;
71629;SDS011;59479;51.902;8.212;2023-01-25T19:32:32;60.83;;;24.35;;
71629;SDS011;59479;51.902;8.212;2023-01-25T19:41:05;62.65;;;23.83;;
71629;SDS011;59479;51.902;8.212;2023-01-25T20:02:46;51.78;;;21.38;;
71629;SDS011;59479;51.902;8.212;2023-01-25T20:05:55;52.88;;;20.92;;
71629;SDS011;59479;51.902;8.212;2023-01-25T20:09:27;53.70;;;22.33;;
71629;SDS011;59479;51.902;8.212;2023-01-25T20:12:13;55.13;;;21.60;;
71629;SDS011;59479;51.902;8.212;2023-01-25T20:17:35;59.97;;;23.63;;
71629;SDS011;59479;51.902;8.212;2023-01-25T20:23:41;57.23;;;23.00;;
71629;SDS011;59479;51.902;8.212;2023-01-25T20:33:10;57.85;;;21.30;;
71629;SDS011;59479;51.902;8.212;2023-01-25T20:36:17;59.97;;;23.30;;
71629;SDS011;59479;51.902;8.212;2023-01-25T20:39:36;53.97;;;23.00;;
71629;SDS011;59479;51.902;8.212;2023-01-25T20:42:05;57.17;;;21.30;;
71629;SDS011;59479;51.902;8.212;2023-01-25T20:44:38;63.67;;;22.70;;
71629;SDS011;59479;51.902;8.212;2023-01-25T20:47:06;62.05;;;22.02;;
71629;SDS011;59479;51.902;8.212;2023-01-25T20:50:15;62.40;;;23.67;;
71629;SDS011;59479;51.902;8.212;2023-01-25T20:56:03;65.60;;;25.13;;
71629;SDS011;59479;51.902;8.212;2023-01-25T20:58:29;63.60;;;23.92;;
71629;SDS011;59479;51.902;8.212;2023-01-25T21:00:55;63.00;;;23.97;;
71629;SDS011;59479;51.902;8.212;2023-01-25T21:03:32;67.68;;;23.15;;
71629;SDS011;59479;51.902;8.212;2023-01-25T21:06:00;63.33;;;24.80;;
71629;SDS011;59479;51.902;8.212;2023-01-25T21:08:47;62.75;;;22.90;;
71629;SDS011;59479;51.902;8.212;2023-01-25T21:11:54;58.08;;;22.92;;
71629;SDS011;59479;51.902;8.212;2023-01-25T21:14:20;62.27;;;22.13;;
71629;SDS011;59479;51.902;8.212;2023-01-25T21:16:47;62.50;;;22.77;;
71629;SDS011;59479;51.902;8.212;2023-01-25T21:19:24;64.85;;;24.30;;
71629;SDS011;59479;51.902;8.212;2023-01-25T21:21:57;70.85;;;23.92;;
71629;SDS011;59479;51.902;8.212;2023-01-25T21:24:22;67.90;;;24.57;;
71629;SDS011;59479;51.902;8.212;2023-01-25T21:26:50;64.45;;;23.60;;
71629;SDS011;59479;51.902;8.212;2023-01-25T21:29:25;65.30;;;23.47;;
71629;SDS011;59479;51.902;8.212;2023-01-25T21:31:50;65.95;;;23.98;;
71629;SDS011;59479;51.902;8.212;2023-01-25T21:34:23;59.53;;;23.50;;
71629;SDS011;59479;51.902;8.212;2023-01-25T21:37:12;61.60;;;22.15;;
71629;SDS011;59479;51.902;8.212;2023-01-25T21:39:42;66.50;;;24.05;;
71629;SDS011;59479;51.902;8.212;2023-01-25T21:42:22;63.17;;;23.98;;
71629;SDS011;59479;51.902;8.212;2023-01-25T21:44:50;62.97;;;24.17;;
71629;SDS011;59479;51.902;8.212;2023-01-25T21:47:43;69.67;;;23.50;;
71629;SDS011;59479;51.902;8.212;2023-01-25T21:50:09;67.18;;;22.75;;
71629;SDS011;59479;51.902;8.212;2023-01-25T21:53:09;65.18;;;22.92;;
71629;SDS011;59479;51.902;8.212;2023-01-25T21:55:37;60.83;;;23.23;;
71629;SDS011;59479;51.902;8.212;2023-01-25T21:58:07;66.07;;;22.38;;
71629;SDS011;59479;51.902;8.212;2023-01-25T22:00:33;62.60;;;23.10;;
71629;SDS011;59479;51.902;8.212;2023-01-25T22:03:03;69.63;;;23.05;;
71629;SDS011;59479;51.902;8.212;2023-01-25T22:05:30;79.47;;;24.77;;
71629;SDS011;59479;51.902;8.212;2023-01-25T22:07:57;69.43;;;26.10;;
71629;SDS011;59479;51.902;8.212;2023-01-25T22:10:23;64.90;;;22.52;;
71629;SDS011;59479;51.902;8.212;2023-01-25T22:12:50;61.63;;;24.17;;
71629;SDS011;59479;51.902;8.212;2023-01-25T22:15:16;69.87;;;25.07;;
71629;SDS011;59479;51.902;8.212;2023-01-25T22:17:41;68.72;;;24.52;;
71629;SDS011;59479;51.902;8.212;2023-01-25T22:20:07;68.70;;;25.98;;
71629;SDS011;59479;51.902;8.212;2023-01-25T22:22:33;75.25;;;25.60;;
71629;SDS011;59479;51.902;8.212;2023-01-25T22:24:59;68.27;;;25.17;;
71629;SDS011;59479;51.902;8.212;2023-01-25T22:30:23;72.88;;;23.88;;
71629;SDS011;59479;51.902;8.212;2023-01-25T22:32:48;66.63;;;23.83;;
71629;SDS011;59479;51.902;8.212;2023-01-25T22:35:14;65.00;;;23.73;;
71629;SDS011;59479;51.902;8.212;2023-01-25T22:37:39;58.63;;;21.80;;
71629;SDS011;59479;51.902;8.212;2023-01-25T22:40:05;59.57;;;21.07;;
71629;SDS011;59479;51.902;8.212;2023-01-25T22:42:31;60.67;;;22.50;;
71629;SDS011;59479;51.902;8.212;2023-01-25T22:44:56;59.97;;;21.70;;
71629;SDS011;59479;51.902;8.212;2023-01-25T22:47:21;63.53;;;23.33;;
71629;SDS011;59479;51.902;8.212;2023-01-25T22:49:47;64.53;;;22.13;;
71629;SDS011;59479;51.902;8.212;2023-01-25T22:52:12;57.90;;;21.40;;
71629;SDS011;59479;51.902;8.212;2023-01-25T22:54:37;61.03;;;22.80;;
71629;SDS011;59479;51.902;8.212;2023-01-25T22:57:03;68.10;;;21.47;;
71629;SDS011;59479;51.902;8.212;2023-01-25T22:59:28;63.17;;;21.40;;
71629;SDS011;59479;51.902;8.212;2023-01-25T23:01:53;62.47;;;23.13;;
71629;SDS011;59479;51.902;8.212;2023-01-25T23:04:19;54.30;;;20.40;;
71629;SDS011;59479;51.902;8.212;2023-01-25T23:06:44;59.77;;;21.27;;
71629;SDS011;59479;51.902;8.212;2023-01-25T23:09:09;66.00;;;21.57;;
71629;SDS011;59479;51.902;8.212;2023-01-25T23:11:35;61.87;;;21.73;;
71629;SDS011;59479;51.902;8.212;2023-01-25T23:14:02;57.53;;;21.33;;
71629;SDS011;59479;51.902;8.212;2023-01-25T23:16:47;60.17;;;20.83;;
71629;SDS011;59479;51.902;8.212;2023-01-25T23:19:12;63.37;;;21.57;;
71629;SDS011;59479;51.902;8.212;2023-01-25T23:21:38;64.83;;;23.07;;
71629;SDS011;59479;51.902;8.212;2023-01-25T23:24:05;61.90;;;20.95;;
71629;SDS011;59479;51.902;8.212;2023-01-25T23:26:31;63.95;;;21.42;;
71629;SDS011;59479;51.902;8.212;2023-01-25T23:29:01;66.60;;;23.30;;
71629;SDS011;59479;51.902;8.212;2023-01-25T23:31:28;61.67;;;22.67;;
71629;SDS011;59479;51.902;8.212;2023-01-25T23:33:54;58.07;;;21.37;;